Startpagina
METAR-TAF:

METAR-TAF

Vliegvelden :

Machala, Ecuador

breedte: 03-26-07S, lengte: 079-58-40W, hoogte: 52 m

Actueel weer

Dit bericht is 55 minuten geleden gemaakt, om 14:00 UTC
Wind 2 kt uit het westzuidwesten
Temperatuur 25°C
Vochtigheid 89%
Druk 1012 hPa
Zicht 10 km of meer
Gebroken wolken op 7000 ft

METAR: SERO 071400Z 24002KT 9999 BKN070 25/23 Q1012

Tijdstip: 09:55 (14:55 UTC)


TAF: ontbreekt

Waarnemingen en weersverwachtingen van meer dan 4000 vliegvelden (METAR en TAF).

De beschikbare stations zijn de gele en rode punten op de kaart.

Ga met uw muis naar het station om de naam te zien.

Klik dan om waarnemingen en weersverwachtingen te zien.

kaart wijzigen: klik op de groene knoppen met een zwart kruis om in te zoomen, op de groene knop met een streepje om uit te zoomen of op de groene pijlen voor aangrenzende kaarten.


METAR-TAF: